Douglas Murphy — WDG2017 — position and weather

sailwx.info

Track history (hours):
 
Tides and Currents Weather Stations Pressure Air Temp Water Temp Dewpoint Dewpoint Depression Visibility Wind Speed Wind Dir Waves Ship Positions

Douglas Murphy

Owner: D&S Marine Service, LLC M/V Douglas Murphy, Gray, LA. More information available from US FCC via Universal Licensing System and Coast Guard Vessel Documentation Center.

Last reported at 2017-Dec-15 20:54 UTC. Time now 2017-Dec-15 23:22 UTC.
Position N 29°45' W 095°10'.

Length 22 m; draft 2.7 m.

Type: . MMSI: 367511270.

Date/timePositionNaut miles runAvg speedWind from/ knotsBaromVisibWave heightAir tempDewpointWater temp
2017-Dec-15 20:54N 29°45' W 095°10'0 0.0
2017-Dec-15 19:47N 29°45' W 095°10'0 0.0
2017-Dec-15 12:17N 29°45' W 095°10'0 0.0
2017-Dec-15 11:47N 29°45' W 095°10'0 0.0
2017-Dec-15 09:47N 29°45' W 095°10'0 0.0
2017-Dec-15 07:02N 29°45' W 095°10'0 0.0
2017-Dec-15 06:59N 29°45' W 095°10'0 0.0
2017-Dec-15 06:14N 29°45' W 095°10'0 0.0
2017-Dec-15 05:41N 29°45' W 095°10'0 0.0
2017-Dec-15 05:29N 29°45' W 095°10'0 0.0
2017-Dec-15 04:41N 29°45' W 095°10'0 0.0
2017-Dec-15 03:41N 29°45' W 095°10'0 0.0
2017-Dec-15 00:44N 29°45' W 095°10'0 0.0
2017-Dec-15 00:11N 29°45' W 095°10'0 0.0
2017-Dec-14 17:32N 29°45' W 095°10'0 1.2
2017-Dec-14 17:30N 29°45' W 095°10'0 0.0
2017-Dec-14 16:18N 29°45' W 095°10'0 0.0
2017-Dec-14 14:45N 29°45' W 095°10'0 0.0
2017-Dec-14 14:12N 29°45' W 095°10'0 0.0
2017-Dec-14 14:00N 29°45' W 095°10'0 0.0
2017-Dec-14 12:51N 29°45' W 095°10'0 0.0
2017-Dec-14 12:30N 29°45' W 095°10'0 0.0
2017-Dec-14 11:51N 29°45' W 095°10'0 0.0
2017-Dec-14 11:27N 29°45' W 095°10'0 0.0
2017-Dec-14 10:57N 29°45' W 095°10'0 0.0
2017-Dec-14 10:24N 29°45' W 095°10'0 0.0
2017-Dec-14 09:51N 29°45' W 095°10'0 0.0
2017-Dec-14 09:30N 29°45' W 095°10'0 0.0
2017-Dec-14 09:00N 29°45' W 095°10'0 0.0
2017-Dec-14 08:30N 29°45' W 095°10'0 0.0
2017-Dec-14 07:54N 29°45' W 095°10'0 0.0
2017-Dec-14 07:24N 29°45' W 095°10'0 0.0
2017-Dec-14 07:00N 29°45' W 095°10'0 0.0
2017-Dec-14 06:27N 29°45' W 095°10'0 0.0
2017-Dec-14 06:00N 29°45' W 095°10'0 0.0
2017-Dec-14 05:24N 29°45' W 095°10'0 0.0
2017-Dec-14 05:00N 29°45' W 095°10'0 0.0
2017-Dec-14 04:30N 29°45' W 095°10'0 0.0
2017-Dec-14 03:48N 29°45' W 095°10'0 0.0
2017-Dec-14 03:27N 29°45' W 095°10'0 0.0
2017-Dec-14 03:00N 29°45' W 095°10'0 0.0
2017-Dec-14 02:30N 29°45' W 095°10'0 0.0
2017-Dec-14 01:48N 29°45' W 095°10'0 0.0
2017-Dec-14 01:30N 29°45' W 095°10'0 0.0
2017-Dec-14 01:00N 29°45' W 095°10'0 0.0
2017-Dec-14 00:30N 29°45' W 095°10'0 0.0
2017-Dec-14 00:00N 29°45' W 095°10'0 0.0
2017-Dec-13 15:24N 29°45' W 095°10'0 0.1
2017-Dec-13 14:02N 29°45' W 095°10'0 0.0
2017-Dec-13 13:41N 29°45' W 095°10'0 0.0
2017-Dec-13 11:56N 29°45' W 095°10'0 0.0
2017-Dec-13 11:29N 29°45' W 095°10'0 0.0
2017-Dec-13 10:17N 29°45' W 095°10'0 0.0
2017-Dec-13 09:50N 29°45' W 095°10'0 0.0
2017-Dec-13 09:29N 29°45' W 095°10'0 0.0
2017-Dec-13 08:59N 29°45' W 095°10'0 0.0
2017-Dec-13 07:47N 29°45' W 095°10'0 0.0
2017-Dec-13 02:28N 29°45' W 095°10'0 0.1
2017-Dec-13 01:22N 29°45' W 095°10'0 0.0
2017-Dec-12 17:37N 29°45' W 095°10'0 3.1
2017-Dec-12 17:29N 29°45' W 095°10'1 0.2
2017-Dec-12 14:03N 29°45' W 095°10'0 0.0
2017-Dec-12 12:12N 29°45' W 095°10'0 0.0
2017-Dec-12 12:00N 29°45' W 095°10'0 0.0
2017-Dec-12 10:42N 29°45' W 095°10'0 0.0
2017-Dec-12 10:30N 29°45' W 095°10'0 0.0
2017-Dec-12 10:00N 29°45' W 095°10'0 0.0
2017-Dec-12 09:30N 29°45' W 095°10'0 0.0
2017-Dec-12 08:51N 29°45' W 095°10'0 0.0
2017-Dec-12 08:30N 29°45' W 095°10'0 0.0
2017-Dec-12 07:54N 29°45' W 095°10'0 0.0
2017-Dec-12 07:27N 29°45' W 095°10'0 0.0
2017-Dec-12 06:57N 29°45' W 095°10'0 0.0
2017-Dec-12 06:30N 29°45' W 095°10'0 0.0
2017-Dec-11 15:51N 29°45' W 095°10'4 5.0
2017-Dec-11 15:04N 29°45' W 095°06'1 5.7
2017-Dec-11 14:58N 29°46' W 095°05'2 0.7
2017-Dec-11 12:34N 29°47' W 095°04'0 0.0
2017-Dec-11 12:10N 29°47' W 095°04'0 0.0
2017-Dec-11 09:31N 29°47' W 095°04'0 0.1
2017-Dec-11 09:28N 29°47' W 095°04'0 0.0
2017-Dec-11 08:49N 29°47' W 095°04'0 0.0
2017-Dec-11 08:16N 29°47' W 095°04'0 0.5
2017-Dec-11 07:59N 29°47' W 095°04'0 0.2
2017-Dec-11 06:15N 29°48' W 095°04'0 0.0
2017-Dec-11 05:57N 29°48' W 095°04'0 0.0
2017-Dec-11 05:15N 29°48' W 095°04'0 0.0
2017-Dec-11 04:54N 29°48' W 095°04'0 0.0
2017-Dec-10 09:57N 29°47' W 095°04'0 0.7
2017-Dec-10 09:24N 29°47' W 095°04'2 1.7
2017-Dec-10 08:27N 29°46' W 095°06'0 0.8
2017-Dec-10 08:01N 29°46' W 095°05'0 0.8
2017-Dec-10 07:30N 29°46' W 095°06'0 0.3
2017-Dec-10 06:54N 29°46' W 095°06'1 1.4
2017-Dec-10 06:31N 29°45' W 095°06'0 0.2
2017-Dec-10 05:51N 29°45' W 095°06'0 0.1
2017-Dec-10 05:27N 29°45' W 095°06'1 1.9
2017-Dec-10 05:00N 29°45' W 095°06'0 0.1
2017-Dec-10 04:30N 29°45' W 095°06'0 0.1
2017-Dec-10 04:00N 29°45' W 095°06'1 2.4
2017-Dec-10 03:30N 29°46' W 095°05'0 0.3
2017-Dec-10 02:24N 29°46' W 095°06'1 2.3
2017-Dec-10 01:47N 29°47' W 095°05'0 0.0
2017-Dec-10 01:30N 29°47' W 095°05'0 0.0
2017-Dec-10 00:59N 29°47' W 095°05'2 0.5
2017-Dec-09 21:15N 29°45' W 095°06'1 0.1
2017-Dec-09 15:32N 29°46' W 095°06'0 0.0
2017-Dec-09 15:22N 29°46' W 095°06'0 0.0
2017-Dec-09 15:00N 29°46' W 095°06'0 0.4
2017-Dec-09 14:30N 29°46' W 095°05'0 0.6
2017-Dec-09 14:00N 29°45' W 095°06'0 0.1
2017-Dec-09 13:31N 29°45' W 095°06'1 1.1
2017-Dec-09 13:00N 29°46' W 095°05'2 4.4
2017-Dec-09 12:30N 29°44' W 095°03'2 4.2
2017-Dec-09 12:00N 29°43' W 095°01'2 4.1
2017-Dec-09 11:30N 29°42' W 094°60'2 3.8
2017-Dec-09 11:00N 29°40' W 094°58'3 5.8
2017-Dec-09 10:31N 29°37' W 094°57'3 5.1
2017-Dec-09 10:00N 29°35' W 094°56'3 5.4
2017-Dec-09 09:30N 29°33' W 094°54'3 6.0
2017-Dec-09 09:00N 29°30' W 094°52'4 6.4
2017-Dec-09 08:20N 29°26' W 094°50'  
Track history (hours):
 
Tides and Currents Weather Stations Pressure Air Temp Water Temp Dewpoint Dewpoint Depression Visibility Wind Speed Wind Dir Waves Ship Positions

Douglas Murphy

Owner: D&S Marine Service, LLC M/V Douglas Murphy, Gray, LA. More information available from US FCC via Universal Licensing System and Coast Guard Vessel Documentation Center.

Last reported at 2017-Dec-15 20:54 UTC. Time now 2017-Dec-15 23:22 UTC.
Position N 29°45' W 095°10'.

Length 22 m; draft 2.7 m.

Type: . MMSI: 367511270.

Date/timePositionNaut miles runAvg speedWind from/ knotsBaromVisibWave heightAir tempDewpointWater temp
2017-Dec-15 20:54N 29°45' W 095°10'0 0.0
2017-Dec-15 19:47N 29°45' W 095°10'0 0.0
2017-Dec-15 12:17N 29°45' W 095°10'0 0.0
2017-Dec-15 11:47N 29°45' W 095°10'0 0.0
2017-Dec-15 09:47N 29°45' W 095°10'0 0.0
2017-Dec-15 07:02N 29°45' W 095°10'0 0.0
2017-Dec-15 06:59N 29°45' W 095°10'0 0.0
2017-Dec-15 06:14N 29°45' W 095°10'0 0.0
2017-Dec-15 05:41N 29°45' W 095°10'0 0.0
2017-Dec-15 05:29N 29°45' W 095°10'0 0.0
2017-Dec-15 04:41N 29°45' W 095°10'0 0.0
2017-Dec-15 03:41N 29°45' W 095°10'0 0.0
2017-Dec-15 00:44N 29°45' W 095°10'0 0.0
2017-Dec-15 00:11N 29°45' W 095°10'0 0.0
2017-Dec-14 17:32N 29°45' W 095°10'0 1.2
2017-Dec-14 17:30N 29°45' W 095°10'0 0.0
2017-Dec-14 16:18N 29°45' W 095°10'0 0.0
2017-Dec-14 14:45N 29°45' W 095°10'0 0.0
2017-Dec-14 14:12N 29°45' W 095°10'0 0.0
2017-Dec-14 14:00N 29°45' W 095°10'0 0.0
2017-Dec-14 12:51N 29°45' W 095°10'0 0.0
2017-Dec-14 12:30N 29°45' W 095°10'0 0.0
2017-Dec-14 11:51N 29°45' W 095°10'0 0.0
2017-Dec-14 11:27N 29°45' W 095°10'0 0.0
2017-Dec-14 10:57N 29°45' W 095°10'0 0.0
2017-Dec-14 10:24N 29°45' W 095°10'0 0.0
2017-Dec-14 09:51N 29°45' W 095°10'0 0.0
2017-Dec-14 09:30N 29°45' W 095°10'0 0.0
2017-Dec-14 09:00N 29°45' W 095°10'0 0.0
2017-Dec-14 08:30N 29°45' W 095°10'0 0.0
2017-Dec-14 07:54N 29°45' W 095°10'0 0.0
2017-Dec-14 07:24N 29°45' W 095°10'0 0.0
2017-Dec-14 07:00N 29°45' W 095°10'0 0.0
2017-Dec-14 06:27N 29°45' W 095°10'0 0.0
2017-Dec-14 06:00N 29°45' W 095°10'0 0.0
2017-Dec-14 05:24N 29°45' W 095°10'0 0.0
2017-Dec-14 05:00N 29°45' W 095°10'0 0.0
2017-Dec-14 04:30N 29°45' W 095°10'0 0.0
2017-Dec-14 03:48N 29°45' W 095°10'0 0.0
2017-Dec-14 03:27N 29°45' W 095°10'0 0.0
2017-Dec-14 03:00N 29°45' W 095°10'0 0.0
2017-Dec-14 02:30N 29°45' W 095°10'0 0.0
2017-Dec-14 01:48N 29°45' W 095°10'0 0.0
2017-Dec-14 01:30N 29°45' W 095°10'0 0.0
2017-Dec-14 01:00N 29°45' W 095°10'0 0.0
2017-Dec-14 00:30N 29°45' W 095°10'0 0.0
2017-Dec-14 00:00N 29°45' W 095°10'0 0.0
2017-Dec-13 15:24N 29°45' W 095°10'0 0.1
2017-Dec-13 14:02N 29°45' W 095°10'0 0.0
2017-Dec-13 13:41N 29°45' W 095°10'0 0.0
2017-Dec-13 11:56N 29°45' W 095°10'0 0.0
2017-Dec-13 11:29N 29°45' W 095°10'0 0.0
2017-Dec-13 10:17N 29°45' W 095°10'0 0.0
2017-Dec-13 09:50N 29°45' W 095°10'0 0.0
2017-Dec-13 09:29N 29°45' W 095°10'0 0.0
2017-Dec-13 08:59N 29°45' W 095°10'0 0.0
2017-Dec-13 07:47N 29°45' W 095°10'0 0.0
2017-Dec-13 02:28N 29°45' W 095°10'0 0.1
2017-Dec-13 01:22N 29°45' W 095°10'0 0.0
2017-Dec-12 17:37N 29°45' W 095°10'0 3.1
2017-Dec-12 17:29N 29°45' W 095°10'1 0.2
2017-Dec-12 14:03N 29°45' W 095°10'0 0.0
2017-Dec-12 12:12N 29°45' W 095°10'0 0.0
2017-Dec-12 12:00N 29°45' W 095°10'0 0.0
2017-Dec-12 10:42N 29°45' W 095°10'0 0.0
2017-Dec-12 10:30N 29°45' W 095°10'0 0.0
2017-Dec-12 10:00N 29°45' W 095°10'0 0.0
2017-Dec-12 09:30N 29°45' W 095°10'0 0.0
2017-Dec-12 08:51N 29°45' W 095°10'0 0.0
2017-Dec-12 08:30N 29°45' W 095°10'0 0.0
2017-Dec-12 07:54N 29°45' W 095°10'0 0.0
2017-Dec-12 07:27N 29°45' W 095°10'0 0.0
2017-Dec-12 06:57N 29°45' W 095°10'0 0.0
2017-Dec-12 06:30N 29°45' W 095°10'0 0.0
2017-Dec-11 15:51N 29°45' W 095°10'4 5.0
2017-Dec-11 15:04N 29°45' W 095°06'1 5.7
2017-Dec-11 14:58N 29°46' W 095°05'2 0.7
2017-Dec-11 12:34N 29°47' W 095°04'0 0.0
2017-Dec-11 12:10N 29°47' W 095°04'0 0.0
2017-Dec-11 09:31N 29°47' W 095°04'0 0.1
2017-Dec-11 09:28N 29°47' W 095°04'0 0.0
2017-Dec-11 08:49N 29°47' W 095°04'0 0.0
2017-Dec-11 08:16N 29°47' W 095°04'0 0.5
2017-Dec-11 07:59N 29°47' W 095°04'0 0.2
2017-Dec-11 06:15N 29°48' W 095°04'0 0.0
2017-Dec-11 05:57N 29°48' W 095°04'0 0.0
2017-Dec-11 05:15N 29°48' W 095°04'0 0.0
2017-Dec-11 04:54N 29°48' W 095°04'0 0.0
2017-Dec-10 09:57N 29°47' W 095°04'0 0.7
2017-Dec-10 09:24N 29°47' W 095°04'2 1.7
2017-Dec-10 08:27N 29°46' W 095°06'0 0.8
2017-Dec-10 08:01N 29°46' W 095°05'0 0.8
2017-Dec-10 07:30N 29°46' W 095°06'0 0.3
2017-Dec-10 06:54N 29°46' W 095°06'1 1.4
2017-Dec-10 06:31N 29°45' W 095°06'0 0.2
2017-Dec-10 05:51N 29°45' W 095°06'0 0.1
2017-Dec-10 05:27N 29°45' W 095°06'1 1.9
2017-Dec-10 05:00N 29°45' W 095°06'0 0.1
2017-Dec-10 04:30N 29°45' W 095°06'0 0.1
2017-Dec-10 04:00N 29°45' W 095°06'1 2.4
2017-Dec-10 03:30N 29°46' W 095°05'0 0.3
2017-Dec-10 02:24N 29°46' W 095°06'1 2.3
2017-Dec-10 01:47N 29°47' W 095°05'0 0.0
2017-Dec-10 01:30N 29°47' W 095°05'0 0.0
2017-Dec-10 00:59N 29°47' W 095°05'2 0.5
2017-Dec-09 21:15N 29°45' W 095°06'1 0.1
2017-Dec-09 15:32N 29°46' W 095°06'0 0.0
2017-Dec-09 15:22N 29°46' W 095°06'0 0.0
2017-Dec-09 15:00N 29°46' W 095°06'0 0.4
2017-Dec-09 14:30N 29°46' W 095°05'0 0.6
2017-Dec-09 14:00N 29°45' W 095°06'0 0.1
2017-Dec-09 13:31N 29°45' W 095°06'1 1.1
2017-Dec-09 13:00N 29°46' W 095°05'2 4.4
2017-Dec-09 12:30N 29°44' W 095°03'2 4.2
2017-Dec-09 12:00N 29°43' W 095°01'2 4.1
2017-Dec-09 11:30N 29°42' W 094°60'2 3.8
2017-Dec-09 11:00N 29°40' W 094°58'3 5.8
2017-Dec-09 10:31N 29°37' W 094°57'3 5.1
2017-Dec-09 10:00N 29°35' W 094°56'3 5.4
2017-Dec-09 09:30N 29°33' W 094°54'3 6.0
2017-Dec-09 09:00N 29°30' W 094°52'4 6.4
2017-Dec-09 08:20N 29°26' W 094°50'  

Dump ship's entire track history